首页
METAR-TAF:

METAR-TAF

机场 :

Dutchess County Airport

波啟浦夕, 紐約州, 美国

纬度: 41-37-36N, 经度: 073-53-03W, 海拔: 50米

当前天气观测

该预报发布于52分钟前的12:53 UTC
静风
温度 -3°C
湿度 80%
气压 1023 hPa
能見度: 16.1公里
天空无云

METAR: KPOU 151253Z 00000KT 10SM CLR M03/M06 A3022 RMK AO2 SLP232 T10331061

时间: 08:45 (13:45 UTC)

预报

该预报发布于2小时和25分钟前的11:20 UTC
预报有效从15日的 12点(UTC)到 16日的 12点(UTC)
风速节,风向
能見度: 10公里
天空无云
从 15日的 1600点(UTC)
风速6节,风向西
能見度: 10公里
少量云层高于6000英尺
从 16日的 0400点(UTC)
风速8节,风向北转西北
能見度: 10公里
散云层高于6000英尺
从 16日的 0700点(UTC)
风速7节,风向
能見度: 10公里
天空无云

TAF: KPOU 151120Z 1512/1612 00000KT P6SM SKC FM151600 26006KT P6SM FEW060 FM160400 34008KT P6SM SCT060 FM160700 35007KT P6SM SKC

超过4000个机场的气象观测和天气预报(METAR&TAF报告)。

可查询的气象台以黄色和红色小点在地图上表示。

将鼠标移到小点上方,可查看气象台名称。

然后点击查看天气观测和预报。

如需切换地图:点击带黑十字的绿色按钮放大地图;点击带横线的绿色按钮缩小地图;或者点击绿色箭头查看邻近地区的地图。


METAR-TAF: